Main page
METAR-TAF:

METAR-TAF

Airports :

Gwadar International Airport

Gwadar, Pakistan

latitude: 25-13-59N, longitude: 062-19-46E, elevation: 29 m

METAR: missing

Time: 10:55 (05:55 UTC)

Forecast

The report was made 1 hour and 55 minutes ago, at 04:00 UTC
Forecast valid from 25 at 06 UTC to 26 at 06 UTC
Wind 12 kt from the South/Southwest
Visibility: 4000 m
Scattered clouds at a height of 3000 ft
haze
Temporary
from 26 at 00 UTC to 26 at 06 UTC
Wind 3 kt from variable directions
Visibility: 3000 m
Broken clouds at a height of 2000 ft
smoke

TAF: OPGD 250400Z 2506/2606 21012KT 4000 HZ SCT030 TEMPO 2600/2606 VRB03KT 3000 FU BKN020

Weather observations and forecasts of more than 4000 airports (METAR and TAF reports).

The available stations are represented by yellow and red dots on the map.

Hover mouse over dot to see the name of the station.

Then click to see weather observations and forecasts.

To change the map : click on the green buttons with a black cross to zoom in, on the green button with a dash to zoom out, or on the green arrows for adjacent maps.


METAR-TAF: